createdAt,value
2018-01-14T00:01:11.115Z,24.12
2018-01-14T00:03:39.958Z,22.02
2018-01-14T00:06:15.247Z,24.15
2018-01-14T00:08:47.539Z,22.35
2018-01-14T00:11:16.598Z,23.55
2018-01-14T00:13:56.610Z,24.10
2018-01-14T00:16:26.783Z,23.83
2018-01-14T00:21:38.422Z,23.08
2018-01-14T00:24:08.802Z,23.40
2018-01-14T00:26:39.142Z,23.77
2018-01-14T00:29:08.211Z,23.00
2018-01-14T00:31:41.582Z,22.48
2018-01-14T00:34:11.830Z,20.45
2018-01-14T00:36:43.558Z,22.55
2018-01-14T00:39:11.704Z,22.52
2018-01-14T00:41:46.190Z,20.98
2018-01-14T00:44:14.851Z,21.80
2018-01-14T00:46:47.438Z,20.88
2018-01-14T00:49:15.602Z,20.70
2018-01-14T00:51:45.000Z,20.02
2018-01-14T00:54:15.886Z,20.12
2018-01-14T00:56:47.942Z,20.33
2018-01-14T00:59:16.938Z,20.62
2018-01-14T01:01:45.894Z,21.00
2018-01-14T01:04:25.926Z,20.23
2018-01-14T01:06:56.030Z,20.77
2018-01-14T01:09:26.650Z,19.42
2018-01-14T01:12:00.434Z,21.73
2018-01-14T01:14:33.646Z,20.60
2018-01-14T01:17:13.382Z,20.30
2018-01-14T01:19:48.326Z,19.80
2018-01-14T01:22:17.421Z,21.58
2018-01-14T01:24:50.705Z,21.30
2018-01-14T01:27:19.674Z,17.95
2018-01-14T01:29:51.154Z,19.40
2018-01-14T01:32:21.203Z,18.15
2018-01-14T01:34:50.290Z,18.95
2018-01-14T01:37:22.301Z,17.85
2018-01-14T01:39:51.333Z,17.40
2018-01-14T01:42:20.358Z,17.65
2018-01-14T01:44:49.402Z,17.33
2018-01-14T01:47:17.497Z,16.15
2018-01-14T01:49:54.946Z,17.12
2018-01-14T01:52:23.031Z,17.25
2018-01-14T01:54:51.070Z,16.50
2018-01-14T01:57:32.953Z,17.23
2018-01-14T02:00:08.842Z,17.70
2018-01-14T02:02:38.809Z,17.52
2018-01-14T02:05:09.762Z,17.35
2018-01-14T02:07:37.865Z,16.05
2018-01-14T02:10:10.898Z,15.13
2018-01-14T02:12:40.177Z,17.05
2018-01-14T02:15:13.345Z,16.83
2018-01-14T02:17:43.386Z,16.42
2018-01-14T02:20:14.213Z,15.90
2018-01-14T02:35:37.285Z,16.12
2018-01-14T02:50:59.345Z,15.32
2018-01-14T02:53:27.905Z,17.23
2018-01-14T03:01:15.485Z,17.45
2018-01-14T03:03:45.685Z,17.90
2018-01-14T03:17:03.729Z,16.75
2018-01-14T03:19:32.854Z,15.50
2018-01-14T03:22:05.773Z,17.17
2018-01-14T03:24:37.725Z,17.75
2018-01-14T03:29:41.685Z,15.30
2018-01-14T03:32:16.449Z,15.70
2018-01-14T03:34:49.521Z,17.37
2018-01-14T03:39:56.480Z,16.05
2018-01-14T03:45:06.977Z,14.98
2018-01-14T03:52:57.120Z,15.45
2018-01-14T04:00:33.528Z,14.77
2018-01-14T04:03:05.733Z,14.55
2018-01-14T04:10:47.842Z,15.23
2018-01-14T04:31:26.257Z,13.95
2018-01-14T04:33:58.145Z,14.00
2018-01-14T04:36:37.168Z,13.95
2018-01-14T04:41:48.016Z,14.15
2018-01-14T04:44:23.268Z,13.55
2018-01-14T04:47:01.600Z,13.90
2018-01-14T04:49:35.692Z,13.85
2018-01-14T05:03:08.424Z,12.85
2018-01-14T05:05:43.124Z,13.80
2018-01-14T05:08:34.476Z,13.15
2018-01-14T05:11:14.800Z,12.52
2018-01-14T05:13:42.844Z,12.63
2018-01-14T05:16:28.992Z,13.05
2018-01-14T05:19:03.080Z,14.40
2018-01-14T05:21:34.983Z,13.70
2018-01-14T05:24:15.824Z,13.05
2018-01-14T05:26:45.784Z,13.98
2018-01-14T05:29:29.484Z,12.75
2018-01-14T05:31:59.468Z,13.90
2018-01-14T05:34:40.160Z,12.88
2018-01-14T05:37:08.232Z,13.98
2018-01-14T05:39:42.888Z,14.30
2018-01-14T05:42:10.976Z,13.57
2018-01-14T05:45:01.440Z,14.70
2018-01-14T05:47:34.036Z,13.73
2018-01-14T05:50:04.080Z,14.30
2018-01-14T05:52:32.868Z,14.57
2018-01-14T05:55:02.876Z,14.02
2018-01-14T05:57:32.892Z,15.30
2018-01-14T06:00:23.848Z,14.43
2018-01-14T06:02:53.856Z,15.48
2018-01-14T06:05:21.908Z,15.93
2018-01-14T06:07:50.112Z,14.95
2018-01-14T06:10:29.792Z,14.48
2018-01-14T06:12:58.792Z,15.50
2018-01-14T06:15:33.508Z,15.40
2018-01-14T06:18:13.952Z,13.73
2018-01-14T06:20:47.843Z,13.90
2018-01-14T06:23:18.636Z,15.30
2018-01-14T06:25:51.520Z,15.77
2018-01-14T06:28:20.600Z,13.50
2018-01-14T06:30:57.260Z,14.63
2018-01-14T06:33:40.679Z,14.45
2018-01-14T06:36:09.712Z,15.48
2018-01-14T06:38:37.985Z,15.30
2018-01-14T06:43:56.112Z,15.85
2018-01-14T06:46:26.168Z,15.05
2018-01-14T06:49:18.291Z,14.80
2018-01-14T06:54:53.811Z,15.48
2018-01-14T06:57:25.124Z,15.75
2018-01-14T06:59:54.192Z,14.38
2018-01-14T07:02:23.175Z,14.30
2018-01-14T07:04:55.467Z,14.70
2018-01-14T07:07:33.856Z,13.50
2018-01-14T07:10:05.724Z,14.80
2018-01-14T07:12:34.508Z,14.02
2018-01-14T07:15:10.742Z,15.50
2018-01-14T07:17:44.467Z,14.87
2018-01-14T07:20:14.468Z,13.70
2018-01-14T07:22:45.199Z,15.18
2018-01-14T07:25:13.256Z,12.82
2018-01-14T07:27:42.291Z,13.82
2018-01-14T07:30:11.082Z,14.07
2018-01-14T07:32:43.152Z,13.35
2018-01-14T07:35:13.160Z,13.05
2018-01-14T07:37:42.132Z,13.10
2018-01-14T07:40:10.972Z,12.65
2018-01-14T07:42:43.615Z,12.68
2018-01-14T07:45:12.612Z,11.98
2018-01-14T07:47:40.855Z,13.18
2018-01-14T07:50:08.960Z,13.55
2018-01-14T07:52:39.047Z,12.90
2018-01-14T07:55:08.069Z,13.00
2018-01-14T07:57:42.673Z,11.93
2018-01-14T08:00:11.549Z,11.90
2018-01-14T08:02:39.631Z,11.95
2018-01-14T08:05:07.687Z,11.88
2018-01-14T08:07:36.791Z,11.38
2018-01-14T08:10:06.851Z,12.40
2018-01-14T08:12:35.851Z,11.70
2018-01-14T08:15:08.296Z,11.95
2018-01-14T08:17:38.303Z,12.20
2018-01-14T08:20:08.307Z,11.27
2018-01-14T08:22:38.575Z,11.40
2018-01-14T08:25:09.979Z,10.50
2018-01-14T08:27:40.179Z,10.88
2018-01-14T08:30:15.359Z,11.85
2018-01-14T08:32:44.459Z,11.90
2018-01-14T08:35:13.423Z,12.48
2018-01-14T08:37:41.463Z,11.60
2018-01-14T08:40:10.499Z,10.70
2018-01-14T08:42:38.567Z,11.15
2018-01-14T08:45:06.707Z,10.68
2018-01-14T08:47:34.731Z,11.10
2018-01-14T08:50:03.687Z,11.30
2018-01-14T08:52:32.699Z,11.20
2018-01-14T08:55:02.795Z,11.10
2018-01-14T08:57:43.711Z,9.65
2018-01-14T09:00:18.335Z,11.25
2018-01-14T09:02:50.071Z,11.55
2018-01-14T09:05:18.203Z,10.30
2018-01-14T09:07:48.206Z,11.20
2018-01-14T09:10:18.143Z,10.05
2018-01-14T09:12:46.179Z,10.23
2018-01-14T09:15:26.243Z,11.05
2018-01-14T09:17:55.343Z,10.13
2018-01-14T09:20:26.102Z,9.93
2018-01-14T09:22:59.423Z,8.75
2018-01-14T09:25:27.442Z,9.48
2018-01-14T09:27:55.483Z,10.80
2018-01-14T09:30:36.307Z,10.15
2018-01-14T09:33:06.347Z,9.77
2018-01-14T09:35:36.419Z,9.57
2018-01-14T09:38:04.455Z,10.43
2018-01-14T09:40:32.543Z,9.82
2018-01-14T09:43:02.587Z,9.52
2018-01-14T09:45:34.051Z,9.60
2018-01-14T09:48:04.103Z,9.57
2018-01-14T09:50:33.035Z,9.52
2018-01-14T09:53:01.059Z,10.05
2018-01-14T09:55:36.451Z,9.43
2018-01-14T09:58:04.523Z,9.43
2018-01-14T10:00:33.443Z,8.88
2018-01-14T10:03:02.251Z,9.85
2018-01-14T10:05:30.283Z,9.90
2018-01-14T10:08:01.531Z,10.63
2018-01-14T10:10:30.338Z,10.70
2018-01-14T10:12:59.427Z,10.95
2018-01-14T10:15:29.455Z,9.98
2018-01-14T10:17:57.498Z,10.40
2018-01-14T10:20:26.290Z,9.98
2018-01-14T10:22:55.083Z,8.85
2018-01-14T10:25:25.834Z,10.75
2018-01-14T10:27:53.866Z,9.52
2018-01-14T10:30:21.934Z,10.65
2018-01-14T10:32:49.974Z,10.65
2018-01-14T10:35:18.922Z,9.02
2018-01-14T10:37:47.063Z,11.40
2018-01-14T10:40:18.330Z,9.65
2018-01-14T10:42:50.187Z,11.75
2018-01-14T10:45:19.166Z,10.50
2018-01-14T10:47:49.714Z,10.55
2018-01-14T10:50:25.230Z,11.23
2018-01-14T10:52:53.302Z,9.70
2018-01-14T10:55:27.026Z,10.43
2018-01-14T10:57:58.074Z,10.57
2018-01-14T11:00:38.355Z,10.00
2018-01-14T11:03:08.326Z,10.80
2018-01-14T11:05:37.346Z,10.82
2018-01-14T11:08:09.982Z,9.27
2018-01-14T11:10:38.038Z,10.45
2018-01-14T11:13:12.279Z,10.00
2018-01-14T11:15:40.378Z,9.75
2018-01-14T11:18:16.686Z,10.25
2018-01-14T11:20:44.726Z,8.85
2018-01-14T11:23:16.794Z,10.95
2018-01-14T11:25:45.762Z,10.10
2018-01-14T11:28:16.494Z,10.15
2018-01-14T11:30:45.278Z,10.02
2018-01-14T11:33:19.850Z,11.63
2018-01-14T11:35:49.814Z,10.00
2018-01-14T11:38:17.842Z,10.65
2018-01-14T11:40:45.907Z,11.27
2018-01-14T11:46:07.939Z,9.88
2018-01-14T11:48:36.026Z,9.38
2018-01-14T11:51:08.070Z,9.43
2018-01-14T11:53:39.722Z,9.43
2018-01-14T11:56:07.810Z,9.70
2018-01-14T11:58:37.814Z,9.20
2018-01-14T12:01:07.790Z,9.35
2018-01-14T12:03:40.606Z,8.85
2018-01-14T12:06:10.426Z,9.73
2018-01-14T12:08:40.390Z,9.00
2018-01-14T12:11:10.142Z,8.90
2018-01-14T12:13:39.570Z,9.23
2018-01-14T12:16:07.648Z,9.80
2018-01-14T12:18:38.752Z,8.32
2018-01-14T12:21:17.198Z,8.10
2018-01-14T12:23:45.382Z,8.80
2018-01-14T12:26:19.710Z,8.63
2018-01-14T12:28:48.660Z,8.70
2018-01-14T12:31:16.746Z,8.63
2018-01-14T12:37:17.119Z,9.70
2018-01-14T12:39:47.102Z,8.45
2018-01-14T12:42:20.158Z,8.85
2018-01-14T12:44:49.845Z,8.85
2018-01-14T12:47:19.186Z,8.50
2018-01-14T12:49:56.138Z,9.02
2018-01-14T12:52:27.073Z,9.43
2018-01-14T12:54:55.138Z,8.10
2018-01-14T12:57:27.741Z,9.60
2018-01-14T12:59:56.890Z,9.05
2018-01-14T13:02:32.341Z,9.00
2018-01-14T13:05:00.353Z,7.78
2018-01-14T13:07:37.277Z,9.02
2018-01-14T13:10:06.378Z,9.10
2018-01-14T13:12:38.081Z,8.77
2018-01-14T13:15:06.921Z,8.73
2018-01-14T13:17:38.853Z,8.90
2018-01-14T13:20:16.529Z,8.15
2018-01-14T13:22:46.337Z,9.55
2018-01-14T13:25:15.129Z,8.93
2018-01-14T13:27:44.113Z,8.27
2018-01-14T13:30:13.929Z,8.73
2018-01-14T13:32:41.981Z,9.70
2018-01-14T13:35:10.811Z,9.77
2018-01-14T13:37:40.853Z,9.27
2018-01-14T13:40:08.925Z,8.55
2018-01-14T13:42:37.022Z,9.18
2018-01-14T13:45:13.289Z,8.38
2018-01-14T13:47:43.293Z,9.35
2018-01-14T13:50:11.329Z,8.23
2018-01-14T13:52:39.397Z,8.40
2018-01-14T13:55:08.325Z,9.05
2018-01-14T13:57:38.329Z,8.35
2018-01-14T14:00:06.373Z,7.12
2018-01-14T14:02:35.389Z,8.15
2018-01-14T14:05:21.253Z,7.25
2018-01-14T14:07:49.341Z,8.00
2018-01-14T14:10:31.781Z,8.57
2018-01-14T14:13:05.909Z,8.52
2018-01-14T14:15:39.661Z,8.35
2018-01-14T14:18:07.777Z,7.78
2018-01-14T14:20:37.721Z,6.95
2018-01-14T14:23:05.957Z,7.22
2018-01-14T14:25:34.961Z,8.02
2018-01-14T14:28:04.891Z,7.53
2018-01-14T14:30:40.139Z,7.70
2018-01-14T14:33:10.101Z,7.60
2018-01-14T14:35:40.173Z,7.62
2018-01-14T14:38:09.130Z,6.90
2018-01-14T14:40:45.297Z,8.35
2018-01-14T14:43:13.357Z,8.05
2018-01-14T14:45:41.397Z,8.70
2018-01-14T14:48:09.393Z,6.95
2018-01-14T14:50:49.097Z,7.00
2018-01-14T14:53:22.833Z,7.18
2018-01-14T14:55:50.909Z,7.90
2018-01-14T14:58:24.741Z,7.90
2018-01-14T15:00:57.765Z,7.18
2018-01-14T15:03:25.873Z,6.95
2018-01-14T15:05:55.989Z,7.30
2018-01-14T15:08:33.469Z,6.70
2018-01-14T15:11:04.417Z,7.20
2018-01-14T15:13:32.577Z,8.27
2018-01-14T15:16:01.633Z,7.50
2018-01-14T15:18:29.681Z,6.50
2018-01-14T15:21:00.065Z,7.55
2018-01-14T15:23:28.185Z,7.03
2018-01-14T15:26:00.944Z,7.45
2018-01-14T15:28:31.690Z,6.82
2018-01-14T15:31:00.621Z,8.30
2018-01-14T15:33:36.692Z,7.87
2018-01-14T15:36:09.581Z,8.00
2018-01-14T15:38:40.625Z,8.05
2018-01-14T15:41:09.632Z,9.10
2018-01-14T15:43:37.709Z,8.05
2018-01-14T15:46:06.529Z,7.40
2018-01-14T15:48:34.537Z,7.82
2018-01-14T15:51:02.565Z,8.82
2018-01-14T15:53:31.510Z,8.02
2018-01-14T15:56:04.641Z,10.10
2018-01-14T15:58:46.148Z,11.00
2018-01-14T16:01:18.372Z,10.70
2018-01-14T16:03:46.369Z,12.70
2018-01-14T16:06:18.132Z,9.45
2018-01-14T16:08:47.081Z,9.25
2018-01-14T16:11:15.085Z,9.48
2018-01-14T16:13:43.132Z,7.70
2018-01-14T16:16:13.832Z,9.10
2018-01-14T16:18:42.829Z,12.20
2018-01-14T16:21:20.467Z,9.40
2018-01-14T16:23:50.416Z,10.90
2018-01-14T16:26:23.637Z,10.63
2018-01-14T16:28:58.013Z,8.73
2018-01-14T16:31:31.262Z,9.55
2018-01-14T16:33:59.313Z,9.70
2018-01-14T16:36:27.324Z,8.60
2018-01-14T16:38:55.336Z,8.57
2018-01-14T16:41:36.180Z,10.75
2018-01-14T16:44:05.117Z,9.32
2018-01-14T16:46:37.417Z,8.02
2018-01-14T16:49:11.877Z,9.90
2018-01-14T16:51:45.821Z,8.70
2018-01-14T16:54:28.158Z,9.77
2018-01-14T16:56:59.457Z,8.63
2018-01-14T16:59:29.477Z,8.65
2018-01-14T17:01:57.473Z,8.88
2018-01-14T17:04:34.545Z,9.50
2018-01-14T17:07:02.553Z,14.23
2018-01-14T17:09:38.149Z,10.68
2018-01-14T17:12:06.185Z,10.52
2018-01-14T17:14:42.033Z,9.63
2018-01-14T17:17:14.285Z,9.10
2018-01-14T17:19:48.181Z,9.25
2018-01-14T17:25:18.025Z,11.43
2018-01-14T17:27:46.976Z,10.73
2018-01-14T17:30:20.352Z,10.57
2018-01-14T17:32:48.369Z,9.93
2018-01-14T17:35:17.308Z,10.35
2018-01-14T17:37:47.212Z,10.75
2018-01-14T17:40:20.637Z,9.98
2018-01-14T17:42:55.209Z,12.40
2018-01-14T17:45:24.148Z,12.30
2018-01-14T17:47:53.128Z,11.73
2018-01-14T17:50:25.883Z,11.40
2018-01-14T17:52:54.632Z,12.00
2018-01-14T17:55:30.032Z,10.27
2018-01-14T17:58:05.780Z,13.48
2018-01-14T18:00:34.704Z,11.93
2018-01-14T18:03:02.712Z,11.27
2018-01-14T18:05:48.076Z,10.50
2018-01-14T18:08:16.084Z,11.65
2018-01-14T18:10:47.256Z,13.18
2018-01-14T18:13:27.984Z,10.38
2018-01-14T18:15:56.012Z,10.15
2018-01-14T18:18:45.092Z,12.27
2018-01-14T18:21:17.644Z,11.95
2018-01-14T18:23:47.331Z,11.30
2018-01-14T18:26:17.251Z,11.25
2018-01-14T18:28:47.175Z,10.07
2018-01-14T18:31:17.908Z,11.20
2018-01-14T18:33:47.626Z,11.43
2018-01-14T18:36:15.599Z,11.60
2018-01-14T18:38:57.984Z,10.10
2018-01-14T18:41:26.000Z,9.50
2018-01-14T18:44:05.303Z,15.38
2018-01-14T18:46:37.516Z,9.93
2018-01-14T18:49:10.235Z,11.02
2018-01-14T18:51:42.899Z,12.90
2018-01-14T18:54:15.467Z,11.12
2018-01-14T18:56:47.288Z,9.93
2018-01-14T18:59:17.956Z,11.43
2018-01-14T19:01:49.512Z,9.70
2018-01-14T19:04:18.444Z,11.20
2018-01-14T19:06:51.107Z,11.63
2018-01-14T19:09:24.531Z,10.48
2018-01-14T19:11:57.592Z,10.77
2018-01-14T19:14:27.259Z,10.48
2018-01-14T19:17:00.032Z,11.20
2018-01-14T19:19:31.728Z,11.65
2018-01-14T19:21:59.853Z,14.15
2018-01-14T19:24:34.059Z,10.77
2018-01-14T19:27:03.055Z,9.50
2018-01-14T19:29:35.331Z,11.45
2018-01-14T19:32:04.416Z,10.65
2018-01-14T19:34:38.015Z,10.70
2018-01-14T19:37:08.379Z,10.10
2018-01-14T19:39:37.443Z,9.75
2018-01-14T19:42:14.107Z,12.63
2018-01-14T19:44:44.647Z,14.27
2018-01-14T19:47:13.591Z,14.00
2018-01-14T19:49:42.587Z,13.38
2018-01-14T19:52:14.347Z,13.30
2018-01-14T19:54:43.595Z,13.60
2018-01-14T19:57:19.635Z,13.50
2018-01-14T19:59:53.543Z,12.65
2018-01-14T20:02:24.743Z,17.17
2018-01-14T20:04:54.788Z,13.43
2018-01-14T20:07:27.363Z,13.55
2018-01-14T20:09:57.083Z,12.73
2018-01-14T20:12:27.599Z,12.90
2018-01-14T20:14:56.451Z,13.55
2018-01-14T20:17:36.915Z,11.90
2018-01-14T20:20:08.863Z,12.13
2018-01-14T20:22:39.954Z,11.32
2018-01-14T20:25:18.323Z,12.13
2018-01-14T20:27:56.730Z,12.32
2018-01-14T20:30:29.275Z,12.35
2018-01-14T20:33:02.035Z,15.40
2018-01-14T20:35:36.934Z,13.93
2018-01-14T20:38:06.410Z,11.50
2018-01-14T20:40:36.359Z,12.55
2018-01-14T20:43:19.607Z,11.75
2018-01-14T20:45:50.395Z,12.90
2018-01-14T20:48:19.443Z,11.93
2018-01-14T20:50:48.563Z,13.25
2018-01-14T20:53:29.187Z,11.77
2018-01-14T20:56:03.519Z,12.18
2018-01-14T20:58:33.555Z,12.50
2018-01-14T21:01:03.547Z,12.60
2018-01-14T21:03:39.407Z,10.80
2018-01-14T21:06:14.219Z,13.32
2018-01-14T21:08:43.259Z,14.55
2018-01-14T21:11:12.518Z,16.52
2018-01-14T21:13:40.619Z,15.80
2018-01-14T21:16:19.795Z,19.60
2018-01-14T21:18:50.167Z,13.90
2018-01-14T21:21:24.240Z,14.93
2018-01-14T21:23:56.015Z,15.10
2018-01-14T21:26:26.139Z,13.95
2018-01-14T21:28:56.324Z,14.05
2018-01-14T21:31:32.854Z,14.00
2018-01-14T21:34:00.967Z,14.95
2018-01-14T21:36:29.122Z,14.15
2018-01-14T21:39:07.599Z,15.38
2018-01-14T21:41:35.690Z,13.48
2018-01-14T21:44:05.710Z,14.87
2018-01-14T21:46:34.803Z,13.62
2018-01-14T21:49:08.779Z,14.77
2018-01-14T21:51:40.898Z,14.73
2018-01-14T21:54:09.235Z,14.55
2018-01-14T21:56:37.916Z,13.45
2018-01-14T21:59:07.994Z,15.43
2018-01-14T22:01:46.558Z,15.65
2018-01-14T22:04:15.890Z,13.82
2018-01-14T22:06:47.274Z,15.45
2018-01-14T22:11:58.042Z,16.87
2018-01-14T22:14:27.279Z,14.23
2018-01-14T22:17:01.418Z,14.00
2018-01-14T22:19:30.790Z,13.80
2018-01-14T22:22:02.666Z,14.13
2018-01-14T22:24:36.558Z,14.10
2018-01-14T22:27:06.934Z,13.18
2018-01-14T22:29:38.530Z,15.23
2018-01-14T22:32:08.754Z,13.95
2018-01-14T22:50:02.322Z,14.15
2018-01-14T22:52:32.094Z,14.02
2018-01-14T22:55:01.786Z,14.93
2018-01-14T22:57:37.602Z,15.15
2018-01-14T23:00:07.862Z,14.90
2018-01-14T23:07:50.398Z,14.20
2018-01-14T23:10:18.578Z,15.25
2018-01-14T23:12:48.898Z,15.57
2018-01-14T23:15:18.982Z,16.00
2018-01-14T23:17:48.954Z,16.73
2018-01-14T23:20:26.982Z,16.17
2018-01-14T23:22:55.970Z,16.55
2018-01-14T23:25:34.190Z,16.58
2018-01-14T23:28:03.279Z,17.48
2018-01-14T23:30:34.955Z,18.02
2018-01-14T23:33:05.874Z,15.82
2018-01-14T23:35:40.630Z,14.98
2018-01-14T23:38:08.806Z,15.35
2018-01-14T23:40:47.886Z,15.95
2018-01-14T23:43:16.009Z,15.10
2018-01-14T23:45:44.074Z,16.58
2018-01-14T23:48:13.202Z,16.12
2018-01-14T23:50:41.261Z,15.82
2018-01-14T23:53:20.953Z,15.45
2018-01-14T23:55:49.919Z,16.92
2018-01-14T23:58:18.721Z,15.40
